createdAt,value
2023-01-05T00:00:32.988Z,83.97
2023-01-05T00:03:05.770Z,83.63
2023-01-05T00:05:37.652Z,83.69
2023-01-05T00:08:09.589Z,83.39
2023-01-05T00:11:00.303Z,83.62
2023-01-05T00:13:50.839Z,83.67
2023-01-05T00:16:41.431Z,83.60
2023-01-05T00:19:32.189Z,83.62
2023-01-05T00:22:32.597Z,83.67
2023-01-05T00:25:21.804Z,83.58
2023-01-05T00:27:55.191Z,83.38
2023-01-05T00:30:30.430Z,83.35
2023-01-05T00:33:02.412Z,83.65
2023-01-05T00:35:34.325Z,83.37
2023-01-05T00:38:07.601Z,83.08
2023-01-05T00:40:39.630Z,83.27
2023-01-05T00:43:11.541Z,83.28
2023-01-05T00:45:44.348Z,83.49
2023-01-05T00:48:16.326Z,83.42
2023-01-05T00:50:50.436Z,83.62
2023-01-05T00:53:22.369Z,83.56
2023-01-05T00:56:03.177Z,83.83
2023-01-05T00:58:34.942Z,83.60
2023-01-05T01:01:13.840Z,83.82
2023-01-05T01:03:45.819Z,83.65
2023-01-05T01:06:18.129Z,83.56
2023-01-05T01:08:50.128Z,82.96
2023-01-05T01:11:22.039Z,83.50
2023-01-05T01:13:53.933Z,83.37
2023-01-05T01:16:25.836Z,83.10
2023-01-05T01:19:00.591Z,82.73
2023-01-05T01:21:36.263Z,82.92
2023-01-05T01:24:08.337Z,82.75
2023-01-05T01:26:40.281Z,83.20
2023-01-05T01:29:12.474Z,83.10
2023-01-05T01:31:45.764Z,82.95
2023-01-05T01:34:18.535Z,83.04
2023-01-05T01:36:50.693Z,83.29
2023-01-05T01:39:22.690Z,83.26
2023-01-05T01:41:54.617Z,83.95
2023-01-05T01:44:48.316Z,83.48
2023-01-05T01:47:44.117Z,83.80
2023-01-05T01:50:20.661Z,83.63
2023-01-05T01:52:58.927Z,83.92
2023-01-05T01:55:32.114Z,83.96
2023-01-05T01:58:08.324Z,84.22
2023-01-05T02:00:41.569Z,83.79
2023-01-05T02:03:14.768Z,83.77
2023-01-05T02:05:46.892Z,83.83
2023-01-05T02:08:25.829Z,83.54
2023-01-05T02:11:16.091Z,83.50
2023-01-05T02:14:12.368Z,83.95
2023-01-05T02:16:50.192Z,83.80
2023-01-05T02:19:40.960Z,84.00
2023-01-05T02:22:35.330Z,83.66
2023-01-05T02:25:46.099Z,83.54
2023-01-05T02:28:42.604Z,82.96
2023-01-05T02:31:28.724Z,83.54
2023-01-05T02:34:18.632Z,83.47
2023-01-05T02:37:00.257Z,83.61
2023-01-05T02:39:58.370Z,83.42
2023-01-05T02:42:34.873Z,84.01
2023-01-05T02:45:08.378Z,83.53
2023-01-05T02:47:43.231Z,83.56
2023-01-05T02:50:23.551Z,83.80
2023-01-05T02:53:06.102Z,83.36
2023-01-05T02:55:44.301Z,83.62
2023-01-05T02:58:19.185Z,83.34
2023-01-05T03:00:59.317Z,83.00
2023-01-05T03:03:43.674Z,83.32
2023-01-05T03:06:34.766Z,82.98
2023-01-05T03:09:07.151Z,83.12
2023-01-05T03:12:22.889Z,82.85
2023-01-05T03:15:00.321Z,83.24
2023-01-05T03:17:37.084Z,83.05
2023-01-05T03:20:09.470Z,83.32
2023-01-05T03:23:03.154Z,82.81
2023-01-05T03:25:57.869Z,82.90
2023-01-05T03:29:02.299Z,83.19
2023-01-05T03:32:04.570Z,83.04
2023-01-05T03:35:03.251Z,83.06
2023-01-05T03:37:40.026Z,83.08
2023-01-05T03:40:19.938Z,82.73
2023-01-05T03:45:28.822Z,82.63
2023-01-05T03:48:00.838Z,83.13
2023-01-05T03:50:32.907Z,83.14
2023-01-05T03:53:05.516Z,82.82
2023-01-05T03:55:37.499Z,82.74
2023-01-05T03:58:09.617Z,83.21
2023-01-05T04:00:41.637Z,82.99
2023-01-05T04:03:13.679Z,82.93
2023-01-05T04:05:45.723Z,83.09
2023-01-05T04:08:17.575Z,82.71
2023-01-05T04:10:52.737Z,83.40
2023-01-05T04:13:25.403Z,83.58
2023-01-05T04:15:57.361Z,83.90
2023-01-05T04:18:29.373Z,83.66
2023-01-05T04:21:01.449Z,83.51
2023-01-05T04:23:34.192Z,83.50
2023-01-05T04:26:06.734Z,83.49
2023-01-05T04:28:38.738Z,83.70
2023-01-05T04:31:10.733Z,83.57
2023-01-05T04:33:45.691Z,83.20
2023-01-05T04:36:17.667Z,83.41
2023-01-05T04:38:49.676Z,83.58
2023-01-05T04:41:21.634Z,83.52
2023-01-05T04:43:53.564Z,83.44
2023-01-05T04:46:25.452Z,83.41
2023-01-05T04:48:57.380Z,83.25
2023-01-05T04:51:29.295Z,83.28
2023-01-05T04:54:01.167Z,83.76
2023-01-05T04:56:33.148Z,83.94
2023-01-05T04:59:05.329Z,83.54
2023-01-05T05:01:37.423Z,83.76
2023-01-05T05:04:09.415Z,83.72
2023-01-05T05:06:41.339Z,83.60
2023-01-05T05:09:13.267Z,83.76
2023-01-05T05:11:45.223Z,83.33
2023-01-05T05:14:17.193Z,83.46
2023-01-05T05:16:49.464Z,83.18
2023-01-05T05:19:21.428Z,83.08
2023-01-05T05:21:53.419Z,83.00
2023-01-05T05:24:25.341Z,83.15
2023-01-05T05:26:57.730Z,82.79
2023-01-05T05:29:29.729Z,83.11
2023-01-05T05:32:01.689Z,82.63
2023-01-05T05:34:33.714Z,82.42
2023-01-05T05:37:05.929Z,82.50
2023-01-05T05:39:37.871Z,82.47
2023-01-05T05:42:09.790Z,82.06
2023-01-05T05:44:41.738Z,82.04
2023-01-05T05:47:13.709Z,81.78
2023-01-05T05:49:45.641Z,81.60
2023-01-05T05:52:18.621Z,81.65
2023-01-05T05:54:50.534Z,81.33
2023-01-05T05:57:22.591Z,80.72
2023-01-05T05:59:54.548Z,80.80
2023-01-05T06:02:26.600Z,81.04
2023-01-05T06:04:58.582Z,80.40
2023-01-05T06:07:30.567Z,80.67
2023-01-05T06:10:02.712Z,80.68
2023-01-05T06:12:34.802Z,80.40
2023-01-05T06:15:10.440Z,80.35
2023-01-05T06:17:42.585Z,80.26
2023-01-05T06:20:16.831Z,80.14
2023-01-05T06:22:48.829Z,80.44
2023-01-05T06:25:20.743Z,80.02
2023-01-05T06:27:52.676Z,80.32
2023-01-05T06:30:24.742Z,80.10
2023-01-05T06:32:56.824Z,79.92
2023-01-05T06:35:28.770Z,79.72
2023-01-05T06:38:00.687Z,79.02
2023-01-05T06:40:32.660Z,79.13
2023-01-05T06:43:04.642Z,79.29
2023-01-05T06:45:36.704Z,79.15
2023-01-05T06:48:08.716Z,79.22
2023-01-05T06:50:40.662Z,79.10
2023-01-05T06:53:12.494Z,79.30
2023-01-05T06:55:45.538Z,79.40
2023-01-05T06:58:17.391Z,79.37
2023-01-05T07:00:49.351Z,79.24
2023-01-05T07:03:24.044Z,79.53
2023-01-05T07:05:55.948Z,79.53
2023-01-05T07:08:27.909Z,79.05
2023-01-05T07:10:59.882Z,79.38
2023-01-05T07:13:31.808Z,79.21
2023-01-05T07:16:03.870Z,78.85
2023-01-05T07:18:35.894Z,79.56
2023-01-05T07:21:08.035Z,78.94
2023-01-05T07:23:39.991Z,78.86
2023-01-05T07:26:11.879Z,78.85
2023-01-05T07:28:43.921Z,78.74
2023-01-05T07:31:15.894Z,78.73
2023-01-05T07:33:47.900Z,78.96
2023-01-05T07:36:19.849Z,78.85
2023-01-05T07:38:53.327Z,78.60
2023-01-05T07:41:25.271Z,79.04
2023-01-05T07:43:57.217Z,79.11
2023-01-05T07:46:29.189Z,78.88
2023-01-05T07:49:01.661Z,78.77
2023-01-05T07:51:33.622Z,79.31
2023-01-05T07:54:05.617Z,79.64
2023-01-05T07:56:37.561Z,79.91
2023-01-05T07:59:09.479Z,79.38
2023-01-05T08:01:41.758Z,79.60
2023-01-05T08:04:13.792Z,78.83
2023-01-05T08:06:45.810Z,79.34
2023-01-05T08:09:36.182Z,78.58
2023-01-05T08:12:08.589Z,79.03
2023-01-05T08:14:41.026Z,78.16
2023-01-05T08:17:13.289Z,78.95
2023-01-05T08:19:45.314Z,78.14
2023-01-05T08:22:17.321Z,78.05
2023-01-05T08:24:49.294Z,77.79
2023-01-05T08:27:21.276Z,77.38
2023-01-05T08:29:53.284Z,76.41
2023-01-05T08:32:25.220Z,76.32
2023-01-05T08:34:57.130Z,76.03
2023-01-05T08:37:29.058Z,74.46
2023-01-05T08:40:00.973Z,75.31
2023-01-05T08:42:32.808Z,74.94
2023-01-05T08:45:05.074Z,75.31
2023-01-05T08:47:36.929Z,74.86
2023-01-05T08:50:11.593Z,75.22
2023-01-05T08:52:43.573Z,75.33
2023-01-05T08:55:15.579Z,74.38
2023-01-05T08:57:47.508Z,74.53
2023-01-05T09:00:22.217Z,73.97
2023-01-05T09:02:54.364Z,74.34
2023-01-05T09:05:29.078Z,73.42
2023-01-05T09:08:01.027Z,73.34
2023-01-05T09:10:33.005Z,72.39
2023-01-05T09:13:04.948Z,72.72
2023-01-05T09:15:37.118Z,72.19
2023-01-05T09:18:09.215Z,71.88
2023-01-05T09:20:41.120Z,71.59
2023-01-05T09:23:13.074Z,71.94
2023-01-05T09:25:44.999Z,72.14
2023-01-05T09:28:16.961Z,71.86
2023-01-05T09:30:51.066Z,72.63
2023-01-05T09:33:23.431Z,72.21
2023-01-05T09:35:56.606Z,71.89
2023-01-05T09:38:28.562Z,72.90
2023-01-05T09:41:14.192Z,72.42
2023-01-05T09:43:48.325Z,72.58
2023-01-05T09:46:28.202Z,72.62
2023-01-05T09:49:04.045Z,73.28
2023-01-05T09:51:36.704Z,73.62
2023-01-05T09:54:16.647Z,74.30
2023-01-05T09:59:46.679Z,75.01
2023-01-05T10:02:35.626Z,74.71
2023-01-05T10:05:08.061Z,74.80
2023-01-05T10:07:54.940Z,74.38
2023-01-05T10:10:42.027Z,73.82
2023-01-05T10:13:31.654Z,75.03
2023-01-05T10:16:03.808Z,75.57
2023-01-05T10:18:37.837Z,74.94
2023-01-05T10:21:33.011Z,75.45
2023-01-05T10:24:22.003Z,75.32
2023-01-05T10:27:27.087Z,75.38
2023-01-05T10:30:26.051Z,75.46
2023-01-05T10:36:16.515Z,74.87
2023-01-05T10:38:54.684Z,74.97
2023-01-05T10:41:34.816Z,74.85
2023-01-05T10:44:15.867Z,74.59
2023-01-05T10:46:52.704Z,74.79
2023-01-05T10:49:28.238Z,74.85
2023-01-05T10:52:01.482Z,74.79
2023-01-05T10:54:40.387Z,74.47
2023-01-05T10:57:35.313Z,74.21
2023-01-05T11:00:16.319Z,74.53
2023-01-05T11:03:03.895Z,74.14
2023-01-05T11:05:44.061Z,75.75
2023-01-05T11:08:18.520Z,77.02
2023-01-05T11:10:57.926Z,77.78
2023-01-05T11:13:37.211Z,77.55
2023-01-05T11:16:15.276Z,77.33
2023-01-05T11:18:53.917Z,77.36
2023-01-05T11:21:31.462Z,77.13
2023-01-05T11:24:04.422Z,77.15
2023-01-05T11:26:38.171Z,76.87
2023-01-05T11:29:10.023Z,77.66
2023-01-05T11:31:53.486Z,77.66
2023-01-05T11:34:49.662Z,77.12
2023-01-05T11:37:28.933Z,76.87
2023-01-05T11:40:03.091Z,75.53
2023-01-05T11:42:42.131Z,75.43
2023-01-05T11:45:21.030Z,75.37
2023-01-05T11:47:57.463Z,74.27
2023-01-05T11:50:34.639Z,73.63
2023-01-05T11:53:06.639Z,72.83
2023-01-05T11:55:40.293Z,73.19
2023-01-05T11:58:15.274Z,72.63
2023-01-05T12:01:18.068Z,71.88
2023-01-05T12:04:02.005Z,72.36
2023-01-05T12:07:00.251Z,71.87
2023-01-05T12:09:35.013Z,71.73
2023-01-05T12:12:19.461Z,71.40
2023-01-05T12:15:12.876Z,71.74
2023-01-05T12:17:56.231Z,71.77
2023-01-05T12:20:37.194Z,71.41
2023-01-05T12:23:15.137Z,70.94
2023-01-05T12:26:29.014Z,71.04
2023-01-05T12:31:29.395Z,70.71
2023-01-05T12:35:46.462Z,70.29
2023-01-05T12:38:25.021Z,70.28
2023-01-05T12:41:34.826Z,70.54
2023-01-05T12:44:24.757Z,69.63
2023-01-05T12:47:05.024Z,67.47
2023-01-05T12:49:48.096Z,66.64
2023-01-05T12:52:29.503Z,66.54
2023-01-05T12:55:32.673Z,64.85
2023-01-05T12:58:13.577Z,65.52
2023-01-05T13:00:47.146Z,65.10
2023-01-05T13:03:35.992Z,65.43
2023-01-05T13:06:17.270Z,65.02
2023-01-05T13:08:52.261Z,65.43
2023-01-05T13:11:44.295Z,64.96
2023-01-05T13:14:27.692Z,64.20
2023-01-05T13:17:04.051Z,64.92
2023-01-05T13:19:46.834Z,63.18
2023-01-05T13:22:28.595Z,62.75
2023-01-05T13:25:09.368Z,62.54
2023-01-05T13:27:41.184Z,62.95
2023-01-05T13:30:27.756Z,65.17
2023-01-05T13:33:32.977Z,65.32
2023-01-05T13:36:26.663Z,66.30
2023-01-05T13:39:43.856Z,68.40
2023-01-05T13:42:43.257Z,69.17
2023-01-05T13:45:38.328Z,69.42
2023-01-05T13:48:34.097Z,70.40
2023-01-05T13:51:37.949Z,70.32
2023-01-05T13:54:32.993Z,70.38
2023-01-05T13:57:24.266Z,70.29
2023-01-05T14:00:10.386Z,70.80
2023-01-05T14:02:46.671Z,70.40
2023-01-05T14:05:33.837Z,71.19
2023-01-05T14:08:14.677Z,70.73
2023-01-05T14:11:06.383Z,71.91
2023-01-05T14:13:51.747Z,71.84
2023-01-05T14:16:36.197Z,71.65
2023-01-05T14:19:45.528Z,71.61
2023-01-05T14:22:20.332Z,72.21
2023-01-05T14:24:54.294Z,72.03
2023-01-05T14:27:27.842Z,72.17
2023-01-05T14:30:01.170Z,72.04
2023-01-05T14:32:55.166Z,73.25
2023-01-05T14:35:37.253Z,72.75
2023-01-05T14:38:23.567Z,72.80
2023-01-05T14:40:56.612Z,72.54
2023-01-05T14:43:34.271Z,73.12
2023-01-05T14:46:15.165Z,73.57
2023-01-05T14:49:11.444Z,74.25
2023-01-05T14:51:55.586Z,74.09
2023-01-05T14:54:42.533Z,74.52
2023-01-05T14:57:26.710Z,74.00
2023-01-05T15:00:10.823Z,74.15
2023-01-05T15:03:05.011Z,74.93
2023-01-05T15:05:53.049Z,74.27
2023-01-05T15:09:01.037Z,74.34
2023-01-05T15:11:57.981Z,74.24
2023-01-05T15:15:02.681Z,74.31
2023-01-05T15:17:56.483Z,74.24
2023-01-05T15:20:49.581Z,74.32
2023-01-05T15:23:33.522Z,73.99
2023-01-05T15:26:08.566Z,73.83
2023-01-05T15:28:44.007Z,73.64
2023-01-05T15:31:35.720Z,73.31
2023-01-05T15:34:39.021Z,72.59
2023-01-05T15:37:13.701Z,73.36
2023-01-05T15:39:51.803Z,72.71
2023-01-05T15:42:43.750Z,72.08
2023-01-05T15:45:28.499Z,72.48
2023-01-05T15:48:10.113Z,72.61
2023-01-05T15:50:51.074Z,71.95
2023-01-05T15:53:36.685Z,71.95
2023-01-05T15:56:35.064Z,72.12
2023-01-05T15:59:32.267Z,72.83
2023-01-05T16:02:17.274Z,72.32
2023-01-05T16:04:49.221Z,73.31
2023-01-05T16:07:21.188Z,73.61
2023-01-05T16:09:53.182Z,73.44
2023-01-05T16:12:26.859Z,74.14
2023-01-05T16:15:04.765Z,74.70
2023-01-05T16:17:38.987Z,73.99
2023-01-05T16:20:19.412Z,74.33
2023-01-05T16:23:24.047Z,74.05
2023-01-05T16:26:00.325Z,74.32
2023-01-05T16:28:33.131Z,74.80
2023-01-05T16:31:14.443Z,74.65
2023-01-05T16:33:46.836Z,74.20
2023-01-05T16:36:21.557Z,74.45
2023-01-05T16:38:53.546Z,74.35
2023-01-05T16:41:27.276Z,74.46
2023-01-05T16:44:01.405Z,74.29
2023-01-05T16:46:40.455Z,75.12
2023-01-05T16:49:35.019Z,75.83
2023-01-05T16:52:09.462Z,75.86
2023-01-05T16:54:41.970Z,75.16
2023-01-05T16:57:38.765Z,74.94
2023-01-05T17:00:26.112Z,74.76
2023-01-05T17:02:59.583Z,74.64
2023-01-05T17:05:35.185Z,73.76
2023-01-05T17:08:16.617Z,72.59
2023-01-05T17:10:49.254Z,70.71
2023-01-05T17:13:25.722Z,70.79
2023-01-05T17:15:57.862Z,70.26
2023-01-05T17:18:29.882Z,70.19
2023-01-05T17:21:05.093Z,70.20
2023-01-05T17:23:42.536Z,70.30
2023-01-05T17:26:22.622Z,70.71
2023-01-05T17:28:58.941Z,70.73
2023-01-05T17:31:31.225Z,70.56
2023-01-05T17:34:03.175Z,70.43
2023-01-05T17:36:36.177Z,70.61
2023-01-05T17:39:08.652Z,70.65
2023-01-05T17:41:40.924Z,70.78
2023-01-05T17:44:13.428Z,70.36
2023-01-05T17:46:47.197Z,70.74
2023-01-05T17:49:21.394Z,71.49
2023-01-05T17:51:53.329Z,71.51
2023-01-05T17:54:25.307Z,72.01
2023-01-05T17:56:57.315Z,72.67
2023-01-05T17:59:29.306Z,73.53
2023-01-05T18:02:01.249Z,74.17
2023-01-05T18:04:33.478Z,74.37
2023-01-05T18:07:05.471Z,75.48
2023-01-05T18:09:38.409Z,75.49
2023-01-05T18:12:10.375Z,76.58
2023-01-05T18:14:44.192Z,76.28
2023-01-05T18:17:16.339Z,76.83
2023-01-05T18:19:48.294Z,77.57
2023-01-05T18:22:20.257Z,78.10
2023-01-05T18:24:52.679Z,77.92
2023-01-05T18:27:25.604Z,77.40
2023-01-05T18:29:57.670Z,76.78
2023-01-05T18:35:05.718Z,74.65
2023-01-05T18:37:41.819Z,74.15
2023-01-05T18:40:13.901Z,73.44
2023-01-05T18:42:45.897Z,72.90
2023-01-05T18:45:19.770Z,73.11
2023-01-05T18:47:58.944Z,72.34
2023-01-05T18:50:30.889Z,72.17
2023-01-05T18:53:02.806Z,72.67
2023-01-05T18:55:34.779Z,72.70
2023-01-05T18:58:06.736Z,72.80
2023-01-05T19:00:43.819Z,72.55
2023-01-05T19:03:15.701Z,72.70
2023-01-05T19:05:47.570Z,73.36
2023-01-05T19:08:19.432Z,73.25
2023-01-05T19:10:51.430Z,73.73
2023-01-05T19:13:23.396Z,74.17
2023-01-05T19:16:00.469Z,74.37
2023-01-05T19:18:32.485Z,74.86
2023-01-05T19:21:04.493Z,74.74
2023-01-05T19:23:36.534Z,75.78
2023-01-05T19:26:08.508Z,76.27
2023-01-05T19:28:45.560Z,76.73
2023-01-05T19:31:19.289Z,76.99
2023-01-05T19:33:52.724Z,77.98
2023-01-05T19:36:25.752Z,78.22
2023-01-05T19:39:01.994Z,78.90
2023-01-05T19:41:34.839Z,77.87
2023-01-05T19:44:06.960Z,78.31
2023-01-05T19:46:38.943Z,78.42
2023-01-05T19:49:17.788Z,77.41
2023-01-05T19:51:50.455Z,77.19
2023-01-05T19:54:23.150Z,76.08
2023-01-05T19:56:55.319Z,76.14
2023-01-05T19:59:33.489Z,74.31
2023-01-05T20:02:06.337Z,73.93
2023-01-05T20:04:38.541Z,73.85
2023-01-05T20:07:10.598Z,73.78
2023-01-05T20:09:42.553Z,73.14
2023-01-05T20:12:15.605Z,73.50
2023-01-05T20:14:47.794Z,73.49
2023-01-05T20:17:19.688Z,72.80
2023-01-05T20:19:51.613Z,71.75
2023-01-05T20:22:23.453Z,70.21
2023-01-05T20:24:55.349Z,70.48
2023-01-05T20:27:27.232Z,70.33
2023-01-05T20:29:59.255Z,69.72
2023-01-05T20:32:31.162Z,70.23
2023-01-05T20:35:03.166Z,70.30
2023-01-05T20:37:35.167Z,70.06
2023-01-05T20:40:07.491Z,70.46
2023-01-05T20:42:39.655Z,70.14
2023-01-05T20:45:11.608Z,70.20
2023-01-05T20:47:47.790Z,69.93
2023-01-05T20:50:20.026Z,70.06
2023-01-05T20:52:51.969Z,69.86
2023-01-05T20:55:23.931Z,69.42
2023-01-05T20:57:55.873Z,68.96
2023-01-05T21:00:27.860Z,69.52
2023-01-05T21:02:59.824Z,69.64
2023-01-05T21:05:31.898Z,69.82
2023-01-05T21:08:03.968Z,69.89
2023-01-05T21:10:39.353Z,70.02
2023-01-05T21:13:30.455Z,70.82
2023-01-05T21:16:05.933Z,70.90
2023-01-05T21:18:37.838Z,70.98
2023-01-05T21:21:11.205Z,71.41
2023-01-05T21:23:47.420Z,71.40
2023-01-05T21:26:20.316Z,72.15
2023-01-05T21:28:53.709Z,72.25
2023-01-05T21:31:27.178Z,72.85
2023-01-05T21:33:59.697Z,72.60
2023-01-05T21:36:33.668Z,71.50
2023-01-05T21:39:08.668Z,71.32
2023-01-05T21:42:00.108Z,71.48
2023-01-05T21:44:33.419Z,70.51
2023-01-05T21:47:06.817Z,70.54
2023-01-05T21:49:38.972Z,70.09
2023-01-05T21:52:30.140Z,70.25
2023-01-05T21:55:20.808Z,70.20
2023-01-05T21:57:52.773Z,70.45
2023-01-05T22:00:25.051Z,70.19
2023-01-05T22:02:57.201Z,70.23
2023-01-05T22:05:29.120Z,70.04
2023-01-05T22:08:01.075Z,70.10
2023-01-05T22:10:32.974Z,70.07
2023-01-05T22:13:06.464Z,70.72
2023-01-05T22:15:38.395Z,70.75
2023-01-05T22:18:10.400Z,70.82
2023-01-05T22:20:42.349Z,70.83
2023-01-05T22:23:14.319Z,71.05
2023-01-05T22:25:46.246Z,70.79
2023-01-05T22:28:18.231Z,70.27
2023-01-05T22:30:50.150Z,70.26
2023-01-05T22:33:22.077Z,69.90
2023-01-05T22:35:54.068Z,70.26
2023-01-05T22:38:26.678Z,70.65
2023-01-05T22:41:00.405Z,70.83
2023-01-05T22:43:32.455Z,70.33
2023-01-05T22:46:07.404Z,69.74
2023-01-05T22:48:41.585Z,68.75
2023-01-05T22:51:14.741Z,69.31
2023-01-05T22:53:46.892Z,70.39
2023-01-05T22:56:20.521Z,71.07
2023-01-05T22:58:52.753Z,72.39
2023-01-05T23:01:39.951Z,72.90
2023-01-05T23:04:12.656Z,73.99
2023-01-05T23:06:44.762Z,74.99
2023-01-05T23:09:17.554Z,75.75
2023-01-05T23:11:49.501Z,75.92
2023-01-05T23:14:22.161Z,76.24
2023-01-05T23:16:54.131Z,76.38
2023-01-05T23:19:26.113Z,76.13
2023-01-05T23:21:58.040Z,75.88
2023-01-05T23:24:30.075Z,75.43
2023-01-05T23:27:02.011Z,75.84
2023-01-05T23:29:34.589Z,74.48
2023-01-05T23:32:06.769Z,74.55
2023-01-05T23:34:40.208Z,73.09
2023-01-05T23:37:12.838Z,72.89
2023-01-05T23:39:44.818Z,73.12
2023-01-05T23:42:35.390Z,72.47
2023-01-05T23:45:08.071Z,72.39
2023-01-05T23:47:43.088Z,72.49
2023-01-05T23:50:14.997Z,72.14
2023-01-05T23:52:46.930Z,72.04
2023-01-05T23:55:18.858Z,71.92
2023-01-05T23:57:50.796Z,72.32
